Time;durP1;ratioP1;P1;durP2;ratioP2;P2;SDS_P1;SDS_P2;PMS_P1;PMS_P2;Temp;Humidity;BMP_temperature;BMP_pressure;BME280_temperature;BME280_humidity;BME280_pressure;Samples;Min_cycle;Max_cycle;Signal;HPM_P1;HPM_P2
2021/12/18 00:01:07;;;;;;;9.33;5.30;;;;;;;;;;1872959;76;21015;-41
2021/12/18 00:03:36;;;;;;;7.35;3.45;;;;;;;;;;1872716;77;21035;-41
2021/12/18 00:06:05;;;;;;;5.30;3.45;;;;;;;;;;1872914;76;21112;-42
2021/12/18 00:08:35;;;;;;;3.77;2.45;;;;;;;;;;1872766;77;21101;-42
2021/12/18 00:11:03;;;;;;;2.95;2.33;;;;;;;;;;1872798;75;21003;-41
2021/12/18 00:13:32;;;;;;;2.70;1.98;;;;;;;;;;1872800;76;21047;-41
2021/12/18 00:16:01;;;;;;;3.62;1.90;;;;;;;;;;1872923;77;21168;-41
2021/12/18 00:18:30;;;;;;;3.77;2.15;;;;;;;;;;1872941;77;21176;-42
2021/12/18 00:20:59;;;;;;;4.90;2.52;;;;;;;;;;1872773;77;21180;-43
2021/12/18 00:23:28;;;;;;;6.10;2.75;;;;;;;;;;1872792;77;21043;-42
2021/12/18 00:25:57;;;;;;;4.95;2.85;;;;;;;;;;1872920;76;21109;-41
2021/12/18 00:28:25;;;;;;;3.85;2.58;;;;;;;;;;1872792;77;21089;-41
2021/12/18 00:30:54;;;;;;;4.53;3.08;;;;;;;;;;1872764;75;21096;-42
2021/12/18 00:33:23;;;;;;;5.53;2.87;;;;;;;;;;1872815;77;21093;-41
2021/12/18 00:35:51;;;;;;;3.98;2.80;;;;;;;;;;1872894;75;21105;-42
2021/12/18 00:38:28;;;;;;;5.78;2.90;;;;;;;;;;1872938;77;21101;-42
2021/12/18 00:41:11;;;;;;;4.62;2.90;;;;;;;;;;1872320;76;21571;-41
2021/12/18 00:43:33;;;;;;;6.30;2.45;;;;;;;;;;1870915;75;21426;-41
2021/12/18 00:45:51;;;;;;;5.28;3.00;;;;;;;;;;1871689;76;21055;-41
2021/12/18 00:48:21;;;;;;;3.83;2.52;;;;;;;;;;1872776;77;21110;-41
2021/12/18 00:50:50;;;;;;;3.70;2.25;;;;;;;;;;1872794;77;21035;-41
2021/12/18 00:53:18;;;;;;;5.50;2.98;;;;;;;;;;1872793;77;21066;-41
2021/12/18 00:55:49;;;;;;;3.08;2.08;;;;;;;;;;1872777;77;21122;-41
2021/12/18 00:58:17;;;;;;;2.90;1.92;;;;;;;;;;1872893;77;21458;-40
2021/12/18 01:00:51;;;;;;;4.85;2.27;;;;;;;;;;1872873;76;21031;-41
2021/12/18 01:03:19;;;;;;;3.35;2.40;;;;;;;;;;1872469;76;21489;-41
2021/12/18 01:05:47;;;;;;;4.12;2.75;;;;;;;;;;1873040;76;21505;-41
2021/12/18 01:08:16;;;;;;;3.77;2.62;;;;;;;;;;1872822;77;21068;-41
2021/12/18 01:11:12;;;;;;;5.42;2.62;;;;;;;;;;1872921;77;21087;-41
2021/12/18 01:13:27;;;;;;;3.70;2.45;;;;;;;;;;1870925;76;21276;-41
2021/12/18 01:15:55;;;;;;;5.12;2.65;;;;;;;;;;1872596;76;21477;-41
2021/12/18 01:23:55;;;;;;;4.00;2.90;;;;;;;;;;1872916;77;21101;-42
2021/12/18 01:26:23;;;;;;;6.30;3.35;;;;;;;;;;1872853;77;21101;-43
2021/12/18 01:28:52;;;;;;;4.50;2.85;;;;;;;;;;1872859;77;21081;-42
2021/12/18 01:31:21;;;;;;;4.60;2.37;;;;;;;;;;1872905;77;21105;-42
2021/12/18 01:33:50;;;;;;;6.20;3.40;;;;;;;;;;1872994;76;21007;-43
2021/12/18 01:36:18;;;;;;;5.25;3.27;;;;;;;;;;1873013;77;21074;-42
2021/12/18 01:38:47;;;;;;;4.22;2.90;;;;;;;;;;1872878;77;21097;-42
2021/12/18 01:41:17;;;;;;;5.37;2.70;;;;;;;;;;1872710;77;21043;-42
2021/12/18 01:46:45;;;;;;;5.03;3.00;;;;;;;;;;1872757;75;21117;-43
2021/12/18 01:52:04;;;;;;;6.08;3.22;;;;;;;;;;1872803;77;21126;-42
2021/12/18 01:54:30;;;;;;;4.50;3.12;;;;;;;;;;1872518;76;21027;-42
2021/12/18 01:56:59;;;;;;;5.15;3.47;;;;;;;;;;1872752;76;21191;-42
2021/12/18 01:59:39;;;;;;;4.97;2.72;;;;;;;;;;1872873;76;21153;-42
2021/12/18 02:02:08;;;;;;;4.90;3.37;;;;;;;;;;1872698;77;21026;-43
2021/12/18 02:04:37;;;;;;;4.95;3.08;;;;;;;;;;1872666;77;21105;-42
2021/12/18 02:07:07;;;;;;;4.37;2.87;;;;;;;;;;1890669;76;21108;-42
2021/12/18 02:12:29;;;;;;;4.83;2.87;;;;;;;;;;1891494;75;21034;-42
2021/12/18 02:20:39;;;;;;;4.85;2.92;;;;;;;;;;1867338;76;21043;-42
2021/12/18 02:22:55;;;;;;;2.98;2.25;;;;;;;;;;1863990;77;21183;-42
2021/12/18 02:25:25;;;;;;;4.05;3.35;;;;;;;;;;1877579;75;21030;-42
2021/12/18 02:27:55;;;;;;;4.47;2.60;;;;;;;;;;1891568;76;21026;-41
2021/12/18 02:30:24;;;;;;;3.33;2.58;;;;;;;;;;1891658;76;21078;-42
2021/12/18 02:32:53;;;;;;;5.92;3.80;;;;;;;;;;1891604;76;21018;-42
2021/12/18 02:35:29;;;;;;;5.03;3.50;;;;;;;;;;1891614;75;21038;-42
2021/12/18 02:38:11;;;;;;;5.72;3.52;;;;;;;;;;1891667;76;21460;-41
2021/12/18 02:40:55;;;;;;;4.80;3.08;;;;;;;;;;1891614;75;21457;-43
2021/12/18 02:43:14;;;;;;;5.08;2.95;;;;;;;;;;1890179;75;21170;-42
2021/12/18 02:45:43;;;;;;;3.72;2.50;;;;;;;;;;1891699;76;21014;-42
2021/12/18 02:48:12;;;;;;;2.60;1.92;;;;;;;;;;1891493;76;21096;-42
2021/12/18 02:50:41;;;;;;;3.22;2.17;;;;;;;;;;1891721;76;21034;-42
2021/12/18 02:53:09;;;;;;;3.20;2.30;;;;;;;;;;1891757;75;21070;-42
2021/12/18 02:55:38;;;;;;;3.33;2.22;;;;;;;;;;1891722;75;21038;-42
2021/12/18 02:58:07;;;;;;;3.87;2.45;;;;;;;;;;1891848;76;21088;-42
2021/12/18 03:00:36;;;;;;;5.67;3.20;;;;;;;;;;1891787;75;21014;-42
2021/12/18 03:03:09;;;;;;;5.08;3.35;;;;;;;;;;1891514;76;21077;-43
2021/12/18 03:05:42;;;;;;;5.83;4.00;;;;;;;;;;1891223;75;21262;-43
2021/12/18 03:08:12;;;;;;;7.78;3.42;;;;;;;;;;1890952;75;21551;-43
2021/12/18 03:19:56;;;;;;;5.67;4.03;;;;;;;;;;1891558;76;21116;-42
2021/12/18 03:22:23;;;;;;;4.72;2.67;;;;;;;;;;1888480;76;21433;-42
2021/12/18 03:24:21;;;;;;;5.78;4.10;;;;;;;;;;1888466;76;21493;-42
2021/12/18 03:26:38;;;;;;;7.42;4.67;;;;;;;;;;1889966;75;21522;-42
2021/12/18 03:29:07;;;;;;;7.50;3.90;;;;;;;;;;1891612;76;21105;-42
2021/12/18 03:31:36;;;;;;;6.87;4.97;;;;;;;;;;1891590;76;21026;-42
2021/12/18 03:34:05;;;;;;;7.62;4.45;;;;;;;;;;1891500;76;21109;-42
2021/12/18 03:36:34;;;;;;;8.18;5.08;;;;;;;;;;1891540;76;21050;-44
2021/12/18 03:39:03;;;;;;;8.40;5.20;;;;;;;;;;1891645;76;21023;-42
2021/12/18 03:41:32;;;;;;;7.55;4.90;;;;;;;;;;1891637;76;21046;-42
2021/12/18 03:44:01;;;;;;;6.28;4.85;;;;;;;;;;1891519;76;21073;-42
2021/12/18 03:46:30;;;;;;;5.62;3.75;;;;;;;;;;1891543;76;21422;-42
2021/12/18 03:48:59;;;;;;;5.17;3.67;;;;;;;;;;1891516;76;21105;-42
2021/12/18 03:51:27;;;;;;;6.75;4.70;;;;;;;;;;1891579;76;21050;-43
2021/12/18 03:53:56;;;;;;;4.92;4.20;;;;;;;;;;1891643;76;21019;-42
2021/12/18 03:56:25;;;;;;;5.60;4.45;;;;;;;;;;1891534;75;21022;-42
2021/12/18 03:58:54;;;;;;;7.15;4.92;;;;;;;;;;1891639;76;21129;-43
2021/12/18 04:01:23;;;;;;;4.72;4.12;;;;;;;;;;1891534;76;21035;-42
2021/12/18 04:03:52;;;;;;;4.42;3.83;;;;;;;;;;1891536;76;21046;-42
2021/12/18 04:06:20;;;;;;;5.85;4.67;;;;;;;;;;1891480;76;21105;-41
2021/12/18 04:08:49;;;;;;;6.42;4.05;;;;;;;;;;1891505;76;21034;-42
2021/12/18 04:11:18;;;;;;;4.55;4.15;;;;;;;;;;1891569;76;21092;-42
2021/12/18 04:13:47;;;;;;;3.65;3.33;;;;;;;;;;1891484;76;21054;-42
2021/12/18 04:16:17;;;;;;;5.97;4.28;;;;;;;;;;1891610;76;21027;-43
2021/12/18 04:18:46;;;;;;;5.75;3.77;;;;;;;;;;1891573;76;21485;-42
2021/12/18 04:21:14;;;;;;;5.10;4.60;;;;;;;;;;1891619;76;21014;-42
2021/12/18 04:23:43;;;;;;;4.67;4.22;;;;;;;;;;1891578;76;21035;-42
2021/12/18 04:26:12;;;;;;;4.53;3.62;;;;;;;;;;1891505;76;21034;-43
2021/12/18 04:28:40;;;;;;;5.35;2.70;;;;;;;;;;1891545;76;21096;-43
2021/12/18 04:31:09;;;;;;;4.45;3.70;;;;;;;;;;1891635;76;21167;-42
2021/12/18 04:33:38;;;;;;;3.30;2.47;;;;;;;;;;1891615;76;21039;-42
2021/12/18 04:36:07;;;;;;;3.45;3.00;;;;;;;;;;1891525;76;21018;-44
2021/12/18 04:38:36;;;;;;;3.15;2.83;;;;;;;;;;1891520;75;21042;-42
2021/12/18 04:41:05;;;;;;;3.37;2.52;;;;;;;;;;1891517;76;21038;-42
2021/12/18 04:43:34;;;;;;;4.17;3.77;;;;;;;;;;1891528;76;21034;-43
2021/12/18 04:46:03;;;;;;;4.65;4.10;;;;;;;;;;1891537;76;21116;-43
2021/12/18 04:48:31;;;;;;;6.80;3.55;;;;;;;;;;1891455;76;21042;-42
2021/12/18 04:51:01;;;;;;;3.95;3.35;;;;;;;;;;1891628;76;21030;-44
2021/12/18 04:53:29;;;;;;;7.70;3.77;;;;;;;;;;1891479;76;21034;-42
2021/12/18 04:55:58;;;;;;;4.85;3.72;;;;;;;;;;1891620;76;21105;-44
2021/12/18 04:58:27;;;;;;;5.10;4.12;;;;;;;;;;1891551;76;21006;-43
2021/12/18 05:00:56;;;;;;;3.90;3.27;;;;;;;;;;1891445;76;21112;-42
2021/12/18 05:03:24;;;;;;;6.25;3.98;;;;;;;;;;1891458;75;21112;-42
2021/12/18 05:05:53;;;;;;;5.65;4.97;;;;;;;;;;1891599;76;21038;-43
2021/12/18 05:08:22;;;;;;;8.83;5.78;;;;;;;;;;1874977;76;21121;-44
2021/12/18 05:10:51;;;;;;;5.85;4.78;;;;;;;;;;1872776;77;21047;-43
2021/12/18 05:13:20;;;;;;;7.22;5.10;;;;;;;;;;1872815;77;21078;-43
2021/12/18 05:15:48;;;;;;;6.75;5.33;;;;;;;;;;1872730;77;21051;-43
2021/12/18 05:18:17;;;;;;;6.92;4.30;;;;;;;;;;1872742;77;21085;-43
2021/12/18 05:20:46;;;;;;;7.55;5.80;;;;;;;;;;1872738;77;21097;-43
2021/12/18 05:23:15;;;;;;;5.40;4.75;;;;;;;;;;1872781;75;21113;-44
2021/12/18 05:25:44;;;;;;;5.90;5.03;;;;;;;;;;1872784;77;21047;-42
2021/12/18 05:28:13;;;;;;;12.68;8.25;;;;;;;;;;1872808;77;21160;-43
2021/12/18 05:30:42;;;;;;;7.60;6.12;;;;;;;;;;1872738;77;21027;-42
2021/12/18 05:33:11;;;;;;;7.53;4.42;;;;;;;;;;1872929;77;21167;-42
2021/12/18 05:35:40;;;;;;;5.45;3.67;;;;;;;;;;1872776;77;21050;-42
2021/12/18 05:38:09;;;;;;;3.47;2.58;;;;;;;;;;1872758;75;21130;-43
2021/12/18 05:40:38;;;;;;;6.03;4.03;;;;;;;;;;1872750;77;21015;-43
2021/12/18 05:43:08;;;;;;;5.80;3.55;;;;;;;;;;1872676;77;21031;-44
2021/12/18 05:45:37;;;;;;;3.98;3.02;;;;;;;;;;1872880;77;21039;-44
2021/12/18 05:48:06;;;;;;;5.25;2.67;;;;;;;;;;1872850;77;21113;-42
2021/12/18 05:50:34;;;;;;;7.95;3.15;;;;;;;;;;1872838;77;21098;-43
2021/12/18 05:53:03;;;;;;;4.40;3.27;;;;;;;;;;1872894;76;21168;-42
2021/12/18 05:55:32;;;;;;;3.55;2.62;;;;;;;;;;1872915;77;21047;-43
2021/12/18 05:58:01;;;;;;;7.92;3.65;;;;;;;;;;1872868;77;21105;-43
2021/12/18 06:00:30;;;;;;;5.30;3.65;;;;;;;;;;1872845;75;21094;-43
2021/12/18 06:02:59;;;;;;;3.42;2.98;;;;;;;;;;1872738;77;21120;-43
2021/12/18 06:05:28;;;;;;;4.15;3.72;;;;;;;;;;1872842;77;21058;-43
2021/12/18 06:07:58;;;;;;;4.90;3.95;;;;;;;;;;1872821;75;21050;-43
2021/12/18 06:10:33;;;;;;;4.35;3.72;;;;;;;;;;1872931;77;21058;-43
2021/12/18 06:13:02;;;;;;;5.33;4.30;;;;;;;;;;1872970;77;21148;-42
2021/12/18 06:15:31;;;;;;;4.22;2.87;;;;;;;;;;1872836;76;21082;-43
2021/12/18 06:18:00;;;;;;;3.95;3.27;;;;;;;;;;1872806;77;21058;-42
2021/12/18 06:20:30;;;;;;;4.78;3.15;;;;;;;;;;1872743;76;21019;-42
2021/12/18 06:22:58;;;;;;;8.90;5.08;;;;;;;;;;1872997;77;21031;-42
2021/12/18 06:25:27;;;;;;;9.55;4.90;;;;;;;;;;1872943;77;21136;-43
2021/12/18 06:27:56;;;;;;;6.25;3.65;;;;;;;;;;1872770;76;21047;-45
2021/12/18 06:30:25;;;;;;;4.55;3.00;;;;;;;;;;1872969;77;21043;-42
2021/12/18 06:32:54;;;;;;;4.15;3.75;;;;;;;;;;1873047;75;21104;-42
2021/12/18 06:35:22;;;;;;;3.65;2.85;;;;;;;;;;1872841;77;21043;-41
2021/12/18 06:37:51;;;;;;;4.15;3.27;;;;;;;;;;1872951;76;21101;-41
2021/12/18 06:40:20;;;;;;;3.95;2.47;;;;;;;;;;1872944;77;21042;-42
2021/12/18 06:42:49;;;;;;;5.00;3.10;;;;;;;;;;1872799;76;21101;-42
2021/12/18 06:45:18;;;;;;;4.78;3.58;;;;;;;;;;1872902;77;21031;-41
2021/12/18 06:47:46;;;;;;;3.50;3.20;;;;;;;;;;1872951;75;21109;-42
2021/12/18 06:50:15;;;;;;;5.35;3.50;;;;;;;;;;1872830;75;21015;-45
2021/12/18 06:52:43;;;;;;;5.50;3.75;;;;;;;;;;1872817;76;21027;-42
2021/12/18 06:55:12;;;;;;;5.80;3.77;;;;;;;;;;1872827;76;21047;-42
2021/12/18 06:57:41;;;;;;;5.78;3.75;;;;;;;;;;1872817;77;21172;-43
2021/12/18 07:00:11;;;;;;;4.65;3.55;;;;;;;;;;1872805;77;21629;-42
2021/12/18 07:02:40;;;;;;;4.62;3.87;;;;;;;;;;1872688;76;21096;-41
2021/12/18 07:05:10;;;;;;;1.80;1.70;;;;;;;;;;1872929;75;21100;-42
2021/12/18 07:07:39;;;;;;;4.15;3.30;;;;;;;;;;1876547;76;21186;-43
2021/12/18 07:10:09;;;;;;;3.08;2.77;;;;;;;;;;1891608;76;21088;-43
2021/12/18 07:12:38;;;;;;;4.25;3.30;;;;;;;;;;1891612;76;21538;-42
2021/12/18 07:15:07;;;;;;;6.65;5.40;;;;;;;;;;1891628;76;21088;-41
2021/12/18 07:17:36;;;;;;;5.37;4.50;;;;;;;;;;1891543;76;21038;-42
2021/12/18 07:20:05;;;;;;;6.03;4.20;;;;;;;;;;1891544;76;21078;-43
2021/12/18 07:22:34;;;;;;;4.90;3.75;;;;;;;;;;1891467;76;21087;-42
2021/12/18 07:25:03;;;;;;;7.70;4.47;;;;;;;;;;1891553;76;21031;-42
2021/12/18 07:27:32;;;;;;;20.82;8.80;;;;;;;;;;1891504;76;21100;-42
2021/12/18 07:30:00;;;;;;;5.05;4.58;;;;;;;;;;1891485;76;21086;-42
2021/12/18 07:32:29;;;;;;;8.60;6.20;;;;;;;;;;1891618;76;21546;-43
2021/12/18 07:34:58;;;;;;;9.58;5.75;;;;;;;;;;1891484;76;21108;-44
2021/12/18 07:37:27;;;;;;;9.25;7.25;;;;;;;;;;1891564;76;21116;-44
2021/12/18 07:39:56;;;;;;;6.92;5.60;;;;;;;;;;1891556;76;21137;-41
2021/12/18 07:42:25;;;;;;;11.55;7.55;;;;;;;;;;1891529;76;21046;-43
2021/12/18 07:44:53;;;;;;;8.70;6.80;;;;;;;;;;1891556;76;21026;-42
2021/12/18 07:47:22;;;;;;;9.70;5.75;;;;;;;;;;1891504;75;21150;-42
2021/12/18 07:49:51;;;;;;;6.20;4.22;;;;;;;;;;1891526;76;21086;-45
2021/12/18 07:52:21;;;;;;;8.18;5.97;;;;;;;;;;1891475;76;21038;-42
2021/12/18 07:54:50;;;;;;;6.28;5.12;;;;;;;;;;1891636;76;21050;-42
2021/12/18 07:57:18;;;;;;;6.83;4.95;;;;;;;;;;1891796;76;21038;-42
2021/12/18 07:59:47;;;;;;;7.85;5.97;;;;;;;;;;1891751;76;21002;-42
2021/12/18 08:02:16;;;;;;;6.85;5.37;;;;;;;;;;1891719;76;21039;-42
2021/12/18 08:04:45;;;;;;;9.08;6.00;;;;;;;;;;1891718;75;21121;-42
2021/12/18 08:07:14;;;;;;;7.83;5.25;;;;;;;;;;1891508;76;21050;-42
2021/12/18 08:09:43;;;;;;;7.45;6.00;;;;;;;;;;1891553;76;21117;-43
2021/12/18 08:12:12;;;;;;;7.67;5.83;;;;;;;;;;1891648;76;21047;-43
2021/12/18 08:14:40;;;;;;;5.67;4.58;;;;;;;;;;1891647;76;21081;-41
2021/12/18 08:17:09;;;;;;;6.80;5.55;;;;;;;;;;1891496;76;21096;-42
2021/12/18 08:19:38;;;;;;;6.10;5.17;;;;;;;;;;1891478;76;21026;-42
2021/12/18 08:22:06;;;;;;;6.67;5.90;;;;;;;;;;1891433;75;21108;-42
2021/12/18 08:24:35;;;;;;;8.25;5.60;;;;;;;;;;1891642;76;21034;-42
2021/12/18 08:27:04;;;;;;;6.70;5.33;;;;;;;;;;1891701;76;21034;-42
2021/12/18 08:29:33;;;;;;;10.82;5.47;;;;;;;;;;1891485;76;21104;-42
2021/12/18 08:32:02;;;;;;;6.05;4.20;;;;;;;;;;1891368;75;21046;-42
2021/12/18 08:34:31;;;;;;;5.25;4.65;;;;;;;;;;1891517;76;21042;-44
2021/12/18 08:37:00;;;;;;;5.58;4.70;;;;;;;;;;1891477;76;21046;-42
2021/12/18 08:39:28;;;;;;;5.22;4.62;;;;;;;;;;1891627;75;21018;-42
2021/12/18 08:41:59;;;;;;;5.37;3.25;;;;;;;;;;1891514;76;21046;-43
2021/12/18 08:44:28;;;;;;;5.25;4.60;;;;;;;;;;1891483;76;21030;-42
2021/12/18 08:46:56;;;;;;;4.85;4.35;;;;;;;;;;1891480;76;20998;-42
2021/12/18 08:49:26;;;;;;;3.05;2.75;;;;;;;;;;1891656;76;21104;-43
2021/12/18 08:51:55;;;;;;;9.00;4.72;;;;;;;;;;1891542;76;21030;-42
2021/12/18 08:54:24;;;;;;;4.58;3.27;;;;;;;;;;1891556;76;21108;-42
2021/12/18 08:56:53;;;;;;;5.30;3.22;;;;;;;;;;1891480;76;21046;-42
2021/12/18 08:59:21;;;;;;;4.85;3.15;;;;;;;;;;1891642;76;21137;-41
2021/12/18 09:01:50;;;;;;;5.60;3.92;;;;;;;;;;1891499;76;21077;-42
2021/12/18 09:04:19;;;;;;;5.17;3.77;;;;;;;;;;1891469;76;21034;-42
2021/12/18 09:06:47;;;;;;;5.17;4.67;;;;;;;;;;1891439;76;21030;-42
2021/12/18 09:09:16;;;;;;;5.65;3.45;;;;;;;;;;1891495;76;21567;-42
2021/12/18 09:11:45;;;;;;;5.03;4.53;;;;;;;;;;1891446;76;21044;-43
2021/12/18 09:14:14;;;;;;;8.28;7.40;;;;;;;;;;1891522;76;21023;-42
2021/12/18 09:16:43;;;;;;;7.65;4.70;;;;;;;;;;1891509;76;21103;-42
2021/12/18 09:19:13;;;;;;;5.90;5.30;;;;;;;;;;1891509;76;21023;-43
2021/12/18 09:21:41;;;;;;;5.10;4.08;;;;;;;;;;1891435;76;21116;-43
2021/12/18 09:24:10;;;;;;;5.28;4.55;;;;;;;;;;1891632;76;21030;-42
2021/12/18 09:26:39;;;;;;;9.98;4.35;;;;;;;;;;1891469;76;21031;-43
2021/12/18 09:29:08;;;;;;;4.25;3.85;;;;;;;;;;1891469;76;21038;-42
2021/12/18 09:31:37;;;;;;;8.30;4.72;;;;;;;;;;1891551;76;21042;-42
2021/12/18 09:34:06;;;;;;;4.90;4.25;;;;;;;;;;1891490;76;21038;-41
2021/12/18 09:36:34;;;;;;;6.08;5.20;;;;;;;;;;1891481;75;21143;-42
2021/12/18 09:39:03;;;;;;;5.53;4.83;;;;;;;;;;1891543;76;21022;-42
2021/12/18 09:41:32;;;;;;;5.47;4.10;;;;;;;;;;1891553;76;21505;-42
2021/12/18 09:44:01;;;;;;;4.03;3.17;;;;;;;;;;1891689;76;21062;-41
2021/12/18 09:46:31;;;;;;;4.90;4.22;;;;;;;;;;1891574;76;21038;-41
2021/12/18 09:49:00;;;;;;;5.60;3.80;;;;;;;;;;1891641;76;21088;-44
2021/12/18 09:51:29;;;;;;;3.45;3.15;;;;;;;;;;1891676;76;21053;-42
2021/12/18 09:53:58;;;;;;;5.95;4.35;;;;;;;;;;1891555;75;21047;-43
2021/12/18 09:56:27;;;;;;;5.70;4.08;;;;;;;;;;1891633;76;21018;-41
2021/12/18 09:58:56;;;;;;;4.97;4.03;;;;;;;;;;1891509;76;21031;-43
2021/12/18 10:01:24;;;;;;;6.67;5.20;;;;;;;;;;1891520;76;21076;-43
2021/12/18 10:03:54;;;;;;;5.47;4.47;;;;;;;;;;1891550;76;21097;-45
2021/12/18 10:06:38;;;;;;;5.30;4.53;;;;;;;;;;1891490;76;21175;-42
2021/12/18 10:09:13;;;;;;;4.20;3.87;;;;;;;;;;1891432;75;21484;-41
2021/12/18 10:11:52;;;;;;;5.22;4.72;;;;;;;;;;1888121;76;21127;-42
2021/12/18 10:14:22;;;;;;;5.47;4.60;;;;;;;;;;1891512;76;21105;-42
2021/12/18 10:16:52;;;;;;;4.97;4.22;;;;;;;;;;1890279;75;21143;-42
2021/12/18 10:19:25;;;;;;;4.35;3.58;;;;;;;;;;1891496;76;21112;-42
2021/12/18 10:21:58;;;;;;;6.60;5.95;;;;;;;;;;1890710;75;21116;-43
2021/12/18 10:24:27;;;;;;;7.33;5.75;;;;;;;;;;1891498;76;21512;-42
2021/12/18 10:26:56;;;;;;;7.05;5.15;;;;;;;;;;1891451;76;21042;-42
2021/12/18 10:29:35;;;;;;;6.17;4.83;;;;;;;;;;1891456;76;21562;-43
2021/12/18 10:32:14;;;;;;;4.67;4.17;;;;;;;;;;1891496;76;21015;-43
2021/12/18 10:34:44;;;;;;;4.65;3.62;;;;;;;;;;1890656;75;21128;-42
2021/12/18 10:37:17;;;;;;;7.87;3.85;;;;;;;;;;1890966;75;21023;-42
2021/12/18 10:39:59;;;;;;;8.63;4.30;;;;;;;;;;1891506;76;21109;-42
2021/12/18 10:42:30;;;;;;;5.42;4.37;;;;;;;;;;1891403;75;21073;-42
2021/12/18 10:45:00;;;;;;;5.85;4.17;;;;;;;;;;1891435;76;21543;-42
2021/12/18 10:47:30;;;;;;;13.48;12.28;;;;;;;;;;1890576;75;21057;-42
2021/12/18 10:49:58;;;;;;;5.85;5.25;;;;;;;;;;1889868;75;21002;-44
2021/12/18 10:52:37;;;;;;;4.60;4.05;;;;;;;;;;1891638;75;21105;-44
2021/12/18 10:55:06;;;;;;;4.35;3.85;;;;;;;;;;1891552;76;20999;-44
2021/12/18 10:57:35;;;;;;;8.68;5.22;;;;;;;;;;1891673;76;21104;-42
2021/12/18 11:00:05;;;;;;;5.67;5.17;;;;;;;;;;1891518;76;21161;-43
2021/12/18 11:02:35;;;;;;;17.55;9.10;;;;;;;;;;1891599;76;21018;-43
2021/12/18 11:05:14;;;;;;;5.70;4.37;;;;;;;;;;1891054;75;21092;-42
2021/12/18 11:07:46;;;;;;;4.78;4.28;;;;;;;;;;1890602;75;21116;-42
2021/12/18 11:10:43;;;;;;;2.42;2.25;;;;;;;;;;1882083;75;21525;-42
2021/12/18 11:15:59;;;;;;;7.80;4.60;;;;;;;;;;1872815;77;21063;-43
2021/12/18 11:18:28;;;;;;;5.10;4.60;;;;;;;;;;1872874;77;21023;-42
2021/12/18 11:20:57;;;;;;;6.75;4.67;;;;;;;;;;1872713;76;21035;-42
2021/12/18 11:23:27;;;;;;;7.00;5.15;;;;;;;;;;1872852;76;21097;-43
2021/12/18 11:25:56;;;;;;;6.08;5.30;;;;;;;;;;1872495;76;21051;-43
2021/12/18 11:28:26;;;;;;;5.30;4.28;;;;;;;;;;1872814;75;21035;-44
2021/12/18 11:30:54;;;;;;;6.97;5.47;;;;;;;;;;1872959;75;21047;-42
2021/12/18 11:33:23;;;;;;;6.67;4.50;;;;;;;;;;1872915;77;21093;-43
2021/12/18 11:35:52;;;;;;;5.67;4.92;;;;;;;;;;1872922;77;21082;-42
2021/12/18 11:38:21;;;;;;;5.45;4.78;;;;;;;;;;1873092;77;21039;-42
2021/12/18 11:40:50;;;;;;;8.63;5.20;;;;;;;;;;1872976;76;21038;-42
2021/12/18 11:43:32;;;;;;;7.15;5.08;;;;;;;;;;1872979;75;21105;-42
2021/12/18 11:46:01;;;;;;;7.33;4.92;;;;;;;;;;1872807;76;21023;-42
2021/12/18 11:48:31;;;;;;;5.58;4.50;;;;;;;;;;1872875;75;21023;-42
2021/12/18 11:51:02;;;;;;;5.75;4.25;;;;;;;;;;1870942;75;21027;-42
2021/12/18 11:53:36;;;;;;;6.55;4.67;;;;;;;;;;1872056;76;21096;-42
2021/12/18 11:56:04;;;;;;;6.67;5.42;;;;;;;;;;1872844;76;21481;-41
2021/12/18 11:58:34;;;;;;;6.83;5.78;;;;;;;;;;1872663;76;21108;-43
2021/12/18 12:01:05;;;;;;;5.40;4.17;;;;;;;;;;1872258;76;21031;-42
2021/12/18 12:03:37;;;;;;;7.20;5.70;;;;;;;;;;1872743;77;21027;-41
2021/12/18 12:06:07;;;;;;;6.87;5.45;;;;;;;;;;1869933;76;21465;-43
2021/12/18 12:08:41;;;;;;;6.58;5.62;;;;;;;;;;1871556;76;21035;-43
2021/12/18 12:11:17;;;;;;;6.45;5.53;;;;;;;;;;1872972;75;21047;-44
2021/12/18 12:13:59;;;;;;;5.33;4.72;;;;;;;;;;1872790;77;21015;-42
2021/12/18 12:16:47;;;;;;;7.67;5.50;;;;;;;;;;1872905;77;21527;-42
2021/12/18 12:19:24;;;;;;;4.55;3.98;;;;;;;;;;1872786;77;21047;-42
2021/12/18 12:21:49;;;;;;;5.35;4.85;;;;;;;;;;1871482;76;21050;-43
2021/12/18 12:24:19;;;;;;;7.08;5.58;;;;;;;;;;1872781;76;21031;-42
2021/12/18 12:26:48;;;;;;;5.42;4.92;;;;;;;;;;1872810;77;21098;-42
2021/12/18 12:29:18;;;;;;;6.05;5.35;;;;;;;;;;1872800;77;21031;-43
2021/12/18 12:31:54;;;;;;;8.38;6.62;;;;;;;;;;1872834;75;21003;-43
2021/12/18 12:34:23;;;;;;;6.10;4.00;;;;;;;;;;1857700;77;21020;-44
2021/12/18 12:36:58;;;;;;;4.80;4.30;;;;;;;;;;1872847;77;21136;-43
2021/12/18 12:39:23;;;;;;;7.33;5.37;;;;;;;;;;1872526;76;21473;-43
2021/12/18 12:41:52;;;;;;;6.05;4.72;;;;;;;;;;1872898;77;21090;-42
2021/12/18 12:44:26;;;;;;;6.80;4.83;;;;;;;;;;1872771;77;21027;-42
2021/12/18 12:47:13;;;;;;;5.60;4.30;;;;;;;;;;1873117;77;21038;-42
2021/12/18 12:49:43;;;;;;;6.50;4.70;;;;;;;;;;1872829;75;21152;-42
2021/12/18 12:52:19;;;;;;;5.15;4.65;;;;;;;;;;1872745;77;21094;-43
2021/12/18 12:54:52;;;;;;;5.25;4.25;;;;;;;;;;1872805;75;21122;-42
2021/12/18 12:57:27;;;;;;;6.55;5.12;;;;;;;;;;1872891;77;21093;-42
2021/12/18 12:59:56;;;;;;;6.28;4.80;;;;;;;;;;1873076;77;21635;-42
2021/12/18 13:02:32;;;;;;;6.60;4.90;;;;;;;;;;1846661;75;21093;-42
2021/12/18 13:05:05;;;;;;;8.43;4.90;;;;;;;;;;1872831;76;20995;-42
2021/12/18 13:07:35;;;;;;;6.55;4.03;;;;;;;;;;1872766;77;21066;-44
2021/12/18 13:10:04;;;;;;;6.33;4.67;;;;;;;;;;1873497;76;21039;-43
2021/12/18 13:12:33;;;;;;;6.08;4.78;;;;;;;;;;1891428;76;21108;-42
2021/12/18 13:15:02;;;;;;;28.98;17.32;;;;;;;;;;1891455;76;21093;-42
2021/12/18 13:17:31;;;;;;;6.40;5.12;;;;;;;;;;1891464;76;21042;-42
2021/12/18 13:20:01;;;;;;;5.35;4.60;;;;;;;;;;1891479;76;21023;-43
2021/12/18 13:22:32;;;;;;;6.28;4.85;;;;;;;;;;1891415;76;21100;-44
2021/12/18 13:25:02;;;;;;;7.25;4.60;;;;;;;;;;1891527;76;21022;-42
2021/12/18 13:27:31;;;;;;;5.65;4.53;;;;;;;;;;1887547;75;21055;-42
2021/12/18 13:30:10;;;;;;;5.83;4.58;;;;;;;;;;1891516;76;21131;-43
2021/12/18 13:32:40;;;;;;;5.17;4.20;;;;;;;;;;1890227;75;21054;-42
2021/12/18 13:35:15;;;;;;;7.53;4.85;;;;;;;;;;1890299;75;21003;-42
2021/12/18 13:37:45;;;;;;;6.97;4.53;;;;;;;;;;1891571;76;21485;-42
2021/12/18 13:40:14;;;;;;;6.42;4.70;;;;;;;;;;1890429;75;21003;-42
2021/12/18 13:42:43;;;;;;;4.40;4.00;;;;;;;;;;1891431;76;21030;-43
2021/12/18 13:45:12;;;;;;;6.78;5.03;;;;;;;;;;1891564;76;21073;-43
2021/12/18 13:47:47;;;;;;;6.47;5.22;;;;;;;;;;1891580;76;21032;-42
2021/12/18 13:50:18;;;;;;;7.80;5.92;;;;;;;;;;1891061;75;21046;-42
2021/12/18 13:52:55;;;;;;;7.95;5.22;;;;;;;;;;1891024;75;21085;-42
2021/12/18 13:55:24;;;;;;;6.92;4.60;;;;;;;;;;1891234;75;21492;-42
2021/12/18 13:58:00;;;;;;;6.08;4.33;;;;;;;;;;1891466;76;21535;-42
2021/12/18 14:00:29;;;;;;;5.92;4.97;;;;;;;;;;1891466;76;21034;-42
2021/12/18 14:02:58;;;;;;;6.22;4.62;;;;;;;;;;1891422;75;21038;-42
2021/12/18 14:05:26;;;;;;;6.55;5.03;;;;;;;;;;1891573;75;21096;-42
2021/12/18 14:07:55;;;;;;;5.20;4.37;;;;;;;;;;1891551;76;21104;-44
2021/12/18 14:10:24;;;;;;;8.88;5.17;;;;;;;;;;1891337;76;21046;-43
2021/12/18 14:12:53;;;;;;;10.18;5.97;;;;;;;;;;1872875;75;21097;-42
2021/12/18 14:15:22;;;;;;;7.90;6.15;;;;;;;;;;1872779;77;21067;-42
2021/12/18 14:17:51;;;;;;;8.78;6.87;;;;;;;;;;1872688;76;21043;-43
2021/12/18 14:20:19;;;;;;;10.50;6.60;;;;;;;;;;1872949;76;21023;-42
2021/12/18 14:22:50;;;;;;;12.30;7.00;;;;;;;;;;1872981;76;21043;-42
2021/12/18 14:25:19;;;;;;;9.33;5.65;;;;;;;;;;1872947;76;21126;-43
2021/12/18 14:27:48;;;;;;;9.55;6.10;;;;;;;;;;1872895;77;21035;-42
2021/12/18 14:30:28;;;;;;;11.40;6.67;;;;;;;;;;1872906;76;21027;-43
2021/12/18 14:33:07;;;;;;;12.37;8.40;;;;;;;;;;1872972;77;21003;-42
2021/12/18 14:35:36;;;;;;;8.75;6.35;;;;;;;;;;1872959;76;21003;-42
2021/12/18 14:38:05;;;;;;;10.90;6.10;;;;;;;;;;1872937;77;21030;-43
2021/12/18 14:40:34;;;;;;;10.82;6.70;;;;;;;;;;1872879;76;21090;-42
2021/12/18 14:43:12;;;;;;;13.80;7.03;;;;;;;;;;1872913;77;21015;-43
2021/12/18 14:45:36;;;;;;;15.72;7.37;;;;;;;;;;1872333;76;21556;-43
2021/12/18 14:48:05;;;;;;;11.83;6.55;;;;;;;;;;1872962;77;21039;-42
2021/12/18 14:50:35;;;;;;;12.07;7.53;;;;;;;;;;1872918;77;21007;-42
2021/12/18 14:53:05;;;;;;;12.40;7.97;;;;;;;;;;1869287;76;21106;-42
2021/12/18 14:55:39;;;;;;;10.13;7.05;;;;;;;;;;1873007;76;21047;-43
2021/12/18 14:58:09;;;;;;;13.08;7.97;;;;;;;;;;1873259;77;21085;-42
2021/12/18 15:00:58;;;;;;;13.98;7.95;;;;;;;;;;1872917;76;21096;-42
2021/12/18 15:03:31;;;;;;;12.65;7.62;;;;;;;;;;1872942;77;21003;-42
2021/12/18 15:06:03;;;;;;;13.53;7.25;;;;;;;;;;1872851;77;21106;-44
2021/12/18 15:08:43;;;;;;;10.88;6.65;;;;;;;;;;1872977;77;21469;-42
2021/12/18 15:11:10;;;;;;;13.72;7.22;;;;;;;;;;1872373;76;21192;-43
2021/12/18 15:13:39;;;;;;;11.05;6.50;;;;;;;;;;1873203;77;21000;-43
2021/12/18 15:16:09;;;;;;;11.15;6.20;;;;;;;;;;1873018;77;21093;-42
2021/12/18 15:18:38;;;;;;;11.97;7.53;;;;;;;;;;1873016;76;21101;-42
2021/12/18 15:21:07;;;;;;;15.10;8.23;;;;;;;;;;1872795;76;21023;-43
2021/12/18 15:23:36;;;;;;;12.45;6.65;;;;;;;;;;1872946;76;21051;-43
2021/12/18 15:26:05;;;;;;;11.60;7.35;;;;;;;;;;1872895;77;21113;-42
2021/12/18 15:28:34;;;;;;;10.15;6.80;;;;;;;;;;1872959;77;21097;-43